createdAt,value
2018-07-20T00:00:22.014Z,99.90
2018-07-20T00:02:50.468Z,99.90
2018-07-20T00:05:18.999Z,99.90
2018-07-20T00:07:47.458Z,99.90
2018-07-20T00:10:16.028Z,99.90
2018-07-20T00:12:44.490Z,99.90
2018-07-20T00:15:13.167Z,99.90
2018-07-20T00:17:41.757Z,99.90
2018-07-20T00:20:10.270Z,99.90
2018-07-20T00:22:38.779Z,99.90
2018-07-20T00:25:07.359Z,99.90
2018-07-20T00:27:35.879Z,99.90
2018-07-20T00:30:04.817Z,99.90
2018-07-20T00:32:33.333Z,99.90
2018-07-20T00:35:01.779Z,99.90
2018-07-20T00:37:30.270Z,99.90
2018-07-20T00:39:58.835Z,99.90
2018-07-20T00:42:27.341Z,99.90
2018-07-20T00:44:55.798Z,99.90
2018-07-20T00:47:24.328Z,99.90
2018-07-20T00:49:52.800Z,99.90
2018-07-20T00:52:21.292Z,99.90
2018-07-20T00:54:49.795Z,99.90
2018-07-20T00:59:46.457Z,99.90
2018-07-20T01:02:14.944Z,99.90
2018-07-20T01:04:43.413Z,99.90
2018-07-20T01:07:11.941Z,99.90
2018-07-20T01:09:40.450Z,99.90
2018-07-20T01:12:09.051Z,99.90
2018-07-20T01:17:05.729Z,99.90
2018-07-20T01:19:34.244Z,99.90
2018-07-20T01:22:02.777Z,99.90
2018-07-20T01:24:31.384Z,99.90
2018-07-20T01:26:59.874Z,99.90
2018-07-20T01:29:28.380Z,99.90
2018-07-20T01:31:56.851Z,99.90
2018-07-20T01:34:25.390Z,99.90
2018-07-20T01:39:22.132Z,99.90
2018-07-20T01:41:50.620Z,99.90
2018-07-20T01:44:19.122Z,99.90
2018-07-20T01:46:47.669Z,99.90
2018-07-20T01:49:16.142Z,99.90
2018-07-20T01:51:44.693Z,99.90
2018-07-20T01:54:13.198Z,99.90
2018-07-20T01:56:41.723Z,99.90
2018-07-20T01:59:10.234Z,99.90
2018-07-20T02:01:38.769Z,99.90
2018-07-20T02:04:07.707Z,99.90
2018-07-20T02:06:36.189Z,99.90
2018-07-20T02:09:07.944Z,99.90
2018-07-20T02:14:04.734Z,99.90
2018-07-20T02:16:33.264Z,99.90
2018-07-20T02:19:01.743Z,99.90
2018-07-20T02:21:30.465Z,99.90
2018-07-20T02:26:27.265Z,99.90
2018-07-20T02:28:55.864Z,99.90
2018-07-20T02:31:24.836Z,99.90
2018-07-20T02:33:53.401Z,99.90
2018-07-20T02:36:21.939Z,99.90
2018-07-20T02:38:50.713Z,99.90
2018-07-20T02:41:19.263Z,99.90
2018-07-20T02:43:47.763Z,99.90
2018-07-20T02:46:16.301Z,99.90
2018-07-20T02:48:44.839Z,99.90
2018-07-20T02:51:13.336Z,99.90
2018-07-20T02:53:41.856Z,99.90
2018-07-20T02:56:10.363Z,99.90
2018-07-20T02:58:38.828Z,99.90
2018-07-20T03:01:07.448Z,99.90
2018-07-20T03:03:36.029Z,99.90
2018-07-20T03:06:04.507Z,99.90
2018-07-20T03:08:33.036Z,99.90
2018-07-20T03:13:29.837Z,99.90
2018-07-20T03:15:58.312Z,99.90
2018-07-20T03:18:26.841Z,99.90
2018-07-20T03:20:55.367Z,99.90
2018-07-20T03:23:23.852Z,99.90
2018-07-20T03:25:52.397Z,99.90
2018-07-20T03:28:20.859Z,99.90
2018-07-20T03:30:49.417Z,99.90
2018-07-20T03:33:17.871Z,99.90
2018-07-20T03:35:46.398Z,99.90
2018-07-20T03:38:14.965Z,99.90
2018-07-20T03:40:43.552Z,99.90
2018-07-20T03:43:12.051Z,99.90
2018-07-20T03:45:40.615Z,99.90
2018-07-20T03:48:09.145Z,99.90
2018-07-20T03:50:37.693Z,99.90
2018-07-20T03:53:06.306Z,99.90
2018-07-20T03:55:34.822Z,99.90
2018-07-20T03:58:03.329Z,99.90
2018-07-20T04:00:32.065Z,99.90
2018-07-20T04:03:00.581Z,99.90
2018-07-20T04:05:29.074Z,99.90
2018-07-20T04:07:57.580Z,99.90
2018-07-20T04:10:26.243Z,99.90
2018-07-20T04:12:54.903Z,99.90
2018-07-20T04:15:23.415Z,99.90
2018-07-20T04:17:51.972Z,99.90
2018-07-20T04:22:48.652Z,99.90
2018-07-20T04:25:17.238Z,99.90
2018-07-20T04:27:45.707Z,99.90
2018-07-20T04:30:15.141Z,99.90
2018-07-20T04:32:43.704Z,99.90
2018-07-20T04:35:12.320Z,99.90
2018-07-20T04:37:40.875Z,99.90
2018-07-20T04:40:09.593Z,99.90
2018-07-20T04:42:38.092Z,99.90
2018-07-20T04:45:06.823Z,99.90
2018-07-20T04:47:35.348Z,99.90
2018-07-20T04:50:04.631Z,99.90
2018-07-20T04:52:33.119Z,99.90
2018-07-20T04:55:01.605Z,99.90
2018-07-20T04:57:30.222Z,99.90
2018-07-20T04:59:58.925Z,99.90
2018-07-20T05:02:27.516Z,99.90
2018-07-20T05:04:56.073Z,99.90
2018-07-20T05:07:24.604Z,99.90
2018-07-20T05:09:53.102Z,99.90
2018-07-20T05:12:21.741Z,99.90
2018-07-20T05:14:50.271Z,99.90
2018-07-20T05:17:18.764Z,99.90
2018-07-20T05:19:47.280Z,99.90
2018-07-20T05:29:40.436Z,99.90
2018-07-20T05:32:08.905Z,99.90
2018-07-20T05:34:37.522Z,99.90
2018-07-20T05:37:06.040Z,99.90
2018-07-20T05:39:34.556Z,99.90
2018-07-20T05:42:03.101Z,99.90
2018-07-20T05:44:31.577Z,99.90
2018-07-20T05:47:00.095Z,99.90
2018-07-20T05:49:28.752Z,99.90
2018-07-20T05:51:57.253Z,99.90
2018-07-20T05:54:25.744Z,99.90
2018-07-20T05:56:54.265Z,99.90
2018-07-20T05:59:23.003Z,99.90
2018-07-20T06:01:51.496Z,99.90
2018-07-20T06:04:19.959Z,99.90
2018-07-20T06:09:16.704Z,99.90
2018-07-20T06:11:45.195Z,99.90
2018-07-20T06:14:13.751Z,99.90
2018-07-20T06:16:42.199Z,99.90
2018-07-20T06:19:10.726Z,99.90
2018-07-20T06:21:39.260Z,99.90
2018-07-20T06:24:07.785Z,99.90
2018-07-20T06:26:36.332Z,99.90
2018-07-20T06:29:04.856Z,99.90
2018-07-20T06:31:33.364Z,99.90
2018-07-20T06:36:30.065Z,99.90
2018-07-20T06:38:58.568Z,99.90
2018-07-20T06:41:27.108Z,99.90
2018-07-20T06:43:56.193Z,99.90
2018-07-20T06:46:24.652Z,99.90
2018-07-20T06:48:53.167Z,99.90
2018-07-20T06:51:21.660Z,99.90
2018-07-20T06:53:50.352Z,99.90
2018-07-20T06:56:19.001Z,99.90
2018-07-20T07:01:15.739Z,99.90
2018-07-20T07:03:44.193Z,99.90
2018-07-20T07:06:12.725Z,99.90
2018-07-20T07:08:41.191Z,99.90
2018-07-20T07:11:09.926Z,99.90
2018-07-20T07:13:38.442Z,99.90
2018-07-20T07:16:07.358Z,99.90
2018-07-20T07:18:35.930Z,99.90
2018-07-20T07:21:04.462Z,99.90
2018-07-20T07:23:33.352Z,99.90
2018-07-20T07:26:02.029Z,99.90
2018-07-20T07:30:58.755Z,99.90
2018-07-20T07:33:27.636Z,99.90
2018-07-20T07:35:56.180Z,99.90
2018-07-20T07:38:25.033Z,99.90
2018-07-20T07:40:53.509Z,99.90
2018-07-20T07:43:22.017Z,99.90
2018-07-20T07:45:50.487Z,99.90
2018-07-20T07:48:19.019Z,99.90
2018-07-20T07:50:47.580Z,99.90
2018-07-20T07:53:16.064Z,99.90
2018-07-20T07:55:44.536Z,99.90
2018-07-20T07:58:13.084Z,99.90
2018-07-20T08:00:41.605Z,99.90
2018-07-20T08:03:10.187Z,99.90
2018-07-20T08:05:38.721Z,99.90
2018-07-20T08:08:07.210Z,99.90
2018-07-20T08:10:35.701Z,99.90
2018-07-20T08:13:04.216Z,99.90
2018-07-20T08:15:32.692Z,99.90
2018-07-20T08:18:01.197Z,99.90
2018-07-20T08:20:29.696Z,99.90
2018-07-20T08:22:58.284Z,99.90
2018-07-20T08:25:26.714Z,99.90
2018-07-20T08:27:55.266Z,99.90
2018-07-20T08:30:23.784Z,99.90
2018-07-20T08:32:52.304Z,99.90
2018-07-20T08:35:20.858Z,99.80
2018-07-20T08:37:49.411Z,99.60
2018-07-20T08:40:17.931Z,99.50
2018-07-20T08:42:46.420Z,99.80
2018-07-20T08:45:14.967Z,99.40
2018-07-20T08:47:43.434Z,96.80
2018-07-20T08:50:12.236Z,96.00
2018-07-20T08:52:40.777Z,96.60
2018-07-20T08:55:09.244Z,96.80
2018-07-20T08:57:37.840Z,94.20
2018-07-20T09:00:06.924Z,94.00
2018-07-20T09:02:35.367Z,93.70
2018-07-20T09:05:04.448Z,93.80
2018-07-20T09:07:32.969Z,94.30
2018-07-20T09:10:07.196Z,94.10
2018-07-20T09:12:35.857Z,93.90
2018-07-20T09:17:32.800Z,91.40
2018-07-20T09:20:01.311Z,91.20
2018-07-20T09:22:29.884Z,91.50
2018-07-20T09:24:58.465Z,91.60
2018-07-20T09:27:26.959Z,91.40
2018-07-20T09:29:55.579Z,91.90
2018-07-20T09:32:24.123Z,89.80
2018-07-20T09:37:20.912Z,90.50
2018-07-20T09:39:49.464Z,89.70
2018-07-20T09:42:18.000Z,83.70
2018-07-20T09:44:46.502Z,85.40
2018-07-20T09:47:15.023Z,84.60
2018-07-20T09:52:19.093Z,85.70
2018-07-20T09:54:50.484Z,80.60
2018-07-20T09:57:24.050Z,82.00
2018-07-20T09:59:59.080Z,80.30
2018-07-20T10:02:33.305Z,79.60
2018-07-20T10:05:06.533Z,78.70
2018-07-20T10:07:41.577Z,76.50
2018-07-20T10:10:15.834Z,77.90
2018-07-20T10:12:48.805Z,77.20
2018-07-20T10:15:21.102Z,78.80
2018-07-20T10:17:52.997Z,76.50
2018-07-20T10:20:25.429Z,74.50
2018-07-20T10:22:59.561Z,72.60
2018-07-20T10:25:33.696Z,73.70
2018-07-20T10:28:05.431Z,72.20
2018-07-20T10:30:37.403Z,71.10
2018-07-20T10:33:11.418Z,71.00
2018-07-20T10:35:47.259Z,72.90
2018-07-20T10:40:51.207Z,69.80
2018-07-20T10:43:23.421Z,70.00
2018-07-20T10:45:55.370Z,68.20
2018-07-20T10:48:27.978Z,70.50
2018-07-20T10:51:01.589Z,68.90
2018-07-20T10:53:35.805Z,69.80
2018-07-20T10:56:09.185Z,69.30
2018-07-20T10:58:44.589Z,70.80
2018-07-20T11:01:16.813Z,67.10
2018-07-20T11:03:52.032Z,65.70
2018-07-20T11:06:23.116Z,67.30
2018-07-20T11:11:25.979Z,66.30
2018-07-20T11:13:59.078Z,65.30
2018-07-20T11:16:32.360Z,67.20
2018-07-20T11:19:08.291Z,66.70
2018-07-20T11:21:42.861Z,66.60
2018-07-20T11:26:44.927Z,68.90
2018-07-20T11:29:19.473Z,67.00
2018-07-20T11:31:50.421Z,65.50
2018-07-20T11:34:21.744Z,65.80
2018-07-20T11:36:53.893Z,65.30
2018-07-20T11:39:25.773Z,66.60
2018-07-20T11:41:58.083Z,65.60
2018-07-20T11:44:33.303Z,66.20
2018-07-20T11:47:06.658Z,66.10
2018-07-20T11:49:39.165Z,65.80
2018-07-20T11:52:12.439Z,67.70
2018-07-20T11:54:44.559Z,65.50
2018-07-20T11:57:17.627Z,65.40
2018-07-20T11:59:52.150Z,64.60
2018-07-20T12:02:27.272Z,64.40
2018-07-20T12:05:00.389Z,63.30
2018-07-20T12:07:31.837Z,63.80
2018-07-20T12:10:03.660Z,61.80
2018-07-20T12:12:35.963Z,60.70
2018-07-20T12:15:13.662Z,61.50
2018-07-20T12:20:16.353Z,59.00
2018-07-20T12:22:50.664Z,61.70
2018-07-20T12:25:21.329Z,59.50
2018-07-20T12:30:22.986Z,59.30
2018-07-20T12:35:25.373Z,57.70
2018-07-20T12:38:02.774Z,59.00
2018-07-20T12:40:34.741Z,58.00
2018-07-20T12:43:10.749Z,57.80
2018-07-20T12:45:44.071Z,57.20
2018-07-20T12:48:15.201Z,57.10
2018-07-20T12:50:47.789Z,56.60
2018-07-20T12:53:22.509Z,56.10
2018-07-20T12:55:51.116Z,57.30
2018-07-20T12:58:19.635Z,56.10
2018-07-20T13:00:48.152Z,56.00
2018-07-20T13:03:16.685Z,56.90
2018-07-20T13:05:45.159Z,55.90
2018-07-20T13:08:13.681Z,55.90
2018-07-20T13:10:42.227Z,55.80
2018-07-20T13:13:11.005Z,56.60
2018-07-20T13:15:39.505Z,55.30
2018-07-20T13:18:08.115Z,56.10
2018-07-20T13:20:36.560Z,54.80
2018-07-20T13:23:05.103Z,54.80
2018-07-20T13:28:01.796Z,53.40
2018-07-20T13:30:30.269Z,52.50
2018-07-20T13:32:58.779Z,53.40
2018-07-20T13:35:27.335Z,52.90
2018-07-20T13:37:55.855Z,52.80
2018-07-20T13:40:24.401Z,51.70
2018-07-20T13:42:53.049Z,53.10
2018-07-20T13:47:49.820Z,52.20
2018-07-20T13:50:18.341Z,52.20
2018-07-20T13:52:46.969Z,52.30
2018-07-20T13:55:15.388Z,52.60
2018-07-20T13:57:43.861Z,52.10
2018-07-20T14:00:12.392Z,50.10
2018-07-20T14:02:40.868Z,50.20
2018-07-20T14:05:09.408Z,51.00
2018-07-20T14:07:37.888Z,51.00
2018-07-20T14:10:06.444Z,52.20
2018-07-20T14:15:03.215Z,49.50
2018-07-20T14:19:59.906Z,49.90
2018-07-20T14:22:28.491Z,50.10
2018-07-20T14:24:57.025Z,50.30
2018-07-20T14:27:25.504Z,48.90
2018-07-20T14:29:54.030Z,50.40
2018-07-20T14:32:22.509Z,49.00
2018-07-20T14:34:51.015Z,49.70
2018-07-20T14:37:19.634Z,49.00
2018-07-20T14:39:48.268Z,47.70
2018-07-20T14:42:16.812Z,47.10
2018-07-20T14:44:45.308Z,47.20
2018-07-20T14:47:13.894Z,47.60
2018-07-20T14:49:42.377Z,46.80
2018-07-20T14:54:39.060Z,46.10
2018-07-20T14:57:07.567Z,46.70
2018-07-20T14:59:36.093Z,47.40
2018-07-20T15:02:04.673Z,47.10
2018-07-20T15:04:33.185Z,46.70
2018-07-20T15:07:01.719Z,47.30
2018-07-20T15:09:30.208Z,47.00
2018-07-20T15:11:58.747Z,47.50
2018-07-20T15:14:27.258Z,47.10
2018-07-20T15:16:55.785Z,47.40
2018-07-20T15:19:24.260Z,47.40
2018-07-20T15:21:52.807Z,46.20
2018-07-20T15:24:21.287Z,46.20
2018-07-20T15:26:49.768Z,45.40
2018-07-20T15:29:18.278Z,46.10
2018-07-20T15:34:14.996Z,46.90
2018-07-20T15:36:43.538Z,46.70
2018-07-20T15:39:12.460Z,46.20
2018-07-20T15:41:41.060Z,45.70
2018-07-20T15:44:09.540Z,44.30
2018-07-20T15:46:38.205Z,44.00
2018-07-20T15:49:06.710Z,44.80
2018-07-20T15:53:35.053Z,45.50
2018-07-20T15:54:03.783Z,46.30
2018-07-20T15:56:33.841Z,46.90
2018-07-20T15:59:02.403Z,46.40
2018-07-20T16:01:30.899Z,47.60
2018-07-20T16:06:27.648Z,47.50
2018-07-20T16:08:56.109Z,47.10
2018-07-20T16:11:24.617Z,48.80
2018-07-20T16:13:53.305Z,48.10
2018-07-20T16:16:21.823Z,48.90
2018-07-20T16:18:50.338Z,48.20
2018-07-20T16:21:18.844Z,48.00
2018-07-20T16:23:47.384Z,48.70
2018-07-20T16:26:16.017Z,50.20
2018-07-20T16:28:44.501Z,52.60
2018-07-20T16:31:13.189Z,54.70
2018-07-20T16:33:41.692Z,56.60
2018-07-20T16:41:07.083Z,60.90
2018-07-20T16:43:35.604Z,61.30
2018-07-20T16:46:04.149Z,61.40
2018-07-20T16:48:32.725Z,61.40
2018-07-20T16:51:01.201Z,62.40
2018-07-20T16:53:29.724Z,62.50
2018-07-20T16:58:47.029Z,60.70
2018-07-20T17:03:50.544Z,60.00
2018-07-20T17:06:20.490Z,60.20
2018-07-20T17:08:52.326Z,60.40
2018-07-20T17:11:24.840Z,60.10
2018-07-20T17:16:28.010Z,59.60
2018-07-20T17:21:32.100Z,58.80
2018-07-20T17:24:04.853Z,58.90
2018-07-20T17:29:08.686Z,60.30
2018-07-20T17:31:40.674Z,60.50
2018-07-20T17:34:12.285Z,61.30
2018-07-20T17:39:14.225Z,62.50
2018-07-20T17:41:44.817Z,62.70
2018-07-20T17:44:20.890Z,63.50
2018-07-20T17:46:52.873Z,63.60
2018-07-20T17:49:24.426Z,64.00
2018-07-20T17:51:56.435Z,64.30
2018-07-20T17:54:30.329Z,64.40
2018-07-20T18:02:39.739Z,65.10
2018-07-20T18:05:27.331Z,66.90
2018-07-20T18:14:01.085Z,68.30
2018-07-20T18:16:39.268Z,68.80
2018-07-20T18:19:36.774Z,69.00
2018-07-20T18:24:56.392Z,69.80
2018-07-20T18:27:31.481Z,70.00
2018-07-20T18:30:13.898Z,70.50
2018-07-20T18:33:00.168Z,70.40
2018-07-20T18:38:32.019Z,70.30
2018-07-20T18:46:29.192Z,72.40
2018-07-20T18:49:08.794Z,72.80
2018-07-20T18:54:41.329Z,75.30
2018-07-20T18:57:24.681Z,76.90
2018-07-20T19:05:35.853Z,80.90
2018-07-20T19:08:15.256Z,82.30
2018-07-20T19:10:50.576Z,83.40
2018-07-20T19:13:45.980Z,85.00
2018-07-20T19:16:26.138Z,86.10
2018-07-20T19:19:06.771Z,88.10
2018-07-20T19:21:48.316Z,89.50
2018-07-20T19:24:26.340Z,90.50
2018-07-20T19:29:44.130Z,92.70
2018-07-20T19:35:13.866Z,96.50
2018-07-20T19:37:52.772Z,98.60
2018-07-20T19:40:36.886Z,99.90
2018-07-20T19:43:15.917Z,99.90
2018-07-20T19:46:03.698Z,99.90
2018-07-20T19:48:38.330Z,99.90
2018-07-20T19:51:13.310Z,99.90
2018-07-20T19:53:50.717Z,99.90
2018-07-20T19:56:22.606Z,99.90
2018-07-20T20:01:30.119Z,99.90
2018-07-20T20:04:03.815Z,99.90
2018-07-20T20:06:39.057Z,99.90
2018-07-20T20:09:09.963Z,99.90
2018-07-20T20:11:39.736Z,99.90
2018-07-20T20:14:08.681Z,99.90
2018-07-20T20:16:37.781Z,99.90
2018-07-20T20:19:06.702Z,99.90
2018-07-20T20:21:36.761Z,99.90
2018-07-20T20:24:05.781Z,99.90
2018-07-20T20:26:34.377Z,99.90
2018-07-20T20:29:03.040Z,99.90
2018-07-20T20:31:31.682Z,99.90
2018-07-20T20:34:00.572Z,99.90
2018-07-20T20:36:29.244Z,99.90
2018-07-20T20:38:57.846Z,99.90
2018-07-20T20:41:26.682Z,99.90
2018-07-20T20:43:55.363Z,99.90
2018-07-20T20:46:24.696Z,99.90
2018-07-20T20:48:53.537Z,99.90
2018-07-20T20:51:22.161Z,99.90
2018-07-20T20:53:51.035Z,99.90
2018-07-20T20:56:19.669Z,99.90
2018-07-20T20:58:48.362Z,99.90
2018-07-20T21:01:17.081Z,99.90
2018-07-20T21:06:14.316Z,99.90
2018-07-20T21:11:12.939Z,99.90
2018-07-20T21:13:41.619Z,99.90
2018-07-20T21:16:10.205Z,99.90
2018-07-20T21:18:39.104Z,99.90
2018-07-20T21:21:07.762Z,99.90
2018-07-20T21:23:36.353Z,99.90
2018-07-20T21:28:33.297Z,99.90
2018-07-20T21:31:01.838Z,99.90
2018-07-20T21:33:30.439Z,99.90
2018-07-20T21:35:59.001Z,99.90
2018-07-20T21:40:55.841Z,99.90
2018-07-20T21:43:24.388Z,99.90
2018-07-20T21:45:52.969Z,99.90
2018-07-20T21:48:21.542Z,99.90
2018-07-20T21:50:50.212Z,99.90
2018-07-20T21:55:47.002Z,99.90
2018-07-20T21:58:16.243Z,99.90
2018-07-20T22:00:44.816Z,99.90
2018-07-20T22:03:13.410Z,99.90
2018-07-20T22:05:42.124Z,99.90
2018-07-20T22:08:10.901Z,99.90
2018-07-20T22:13:07.957Z,99.90
2018-07-20T22:15:36.544Z,99.90
2018-07-20T22:18:05.383Z,99.90
2018-07-20T22:20:36.265Z,99.90
2018-07-20T22:23:04.822Z,99.90
2018-07-20T22:25:33.427Z,99.90
2018-07-20T22:28:02.029Z,99.90
2018-07-20T22:30:30.949Z,99.90
2018-07-20T22:32:59.502Z,99.90
2018-07-20T22:35:28.106Z,99.90
2018-07-20T22:37:57.861Z,99.90
2018-07-20T22:40:26.493Z,99.90
2018-07-20T22:42:56.027Z,99.90
2018-07-20T22:45:24.982Z,99.90
2018-07-20T22:47:53.585Z,99.90
2018-07-20T22:52:50.387Z,99.90
2018-07-20T22:55:18.981Z,99.90
2018-07-20T22:57:47.541Z,99.90
2018-07-20T23:00:16.108Z,99.90
2018-07-20T23:02:44.659Z,99.90
2018-07-20T23:05:13.228Z,99.90
2018-07-20T23:07:41.797Z,99.90
2018-07-20T23:10:10.387Z,99.90
2018-07-20T23:12:38.917Z,99.90
2018-07-20T23:15:07.509Z,99.90
2018-07-20T23:17:36.058Z,99.90
2018-07-20T23:20:04.813Z,99.90
2018-07-20T23:22:33.373Z,99.90
2018-07-20T23:25:01.934Z,99.90
2018-07-20T23:27:30.523Z,99.90
2018-07-20T23:29:59.123Z,99.90
2018-07-20T23:32:27.738Z,99.90
2018-07-20T23:34:56.309Z,99.90
2018-07-20T23:37:24.894Z,99.90
2018-07-20T23:39:53.429Z,99.90
2018-07-20T23:42:22.026Z,99.90
2018-07-20T23:44:50.566Z,99.90
2018-07-20T23:47:19.176Z,99.90
2018-07-20T23:49:47.749Z,99.90
2018-07-20T23:52:16.319Z,99.90
2018-07-20T23:54:45.306Z,99.90
2018-07-20T23:57:13.955Z,99.90
2018-07-20T23:59:42.506Z,99.90
